Woodlandville, Missouri
Current Conditions -  °F | °C
As of 7:35 AM on Monday 22 Dec 2014 (Local Time) from KVER Reporting Station
Overcast Overcast  
Wind Chill: 35°   Ceiling: 2700
Heat Index: 40°   Visibility: 10mi
Dew Point: 39°   Wind: 8mph
Humidity: 97%   Direction: 110°ESE
Pressure: 29.66"   Gusts: NA
Location:  39.1303°N, 92.454°W
Report Text: KVER 221335Z AUTO 11007KT 10SM BKN027 OVC070 05/04 A2966 RMK AO2 T00450040
Loading
Personal Weather Stations






























Interactive Weather Map New forecast layout! Learn more

10-Day Weather Forecast

Advertisements
Track Severe Weather on mobile